sensor_id;sensor_type;location;lat;lon;timestamp;P1;durP1;ratioP1;P2;durP2;ratioP2
5785;SDS011;2919;48.630;9.000;2022-12-07T00:00:52;11.47;;;5.13;;
5785;SDS011;2919;48.630;9.000;2022-12-07T00:03:18;8.60;;;4.20;;
5785;SDS011;2919;48.630;9.000;2022-12-07T00:05:44;10.30;;;4.50;;
5785;SDS011;2919;48.630;9.000;2022-12-07T00:08:09;6.93;;;4.10;;
5785;SDS011;2919;48.630;9.000;2022-12-07T00:10:35;5.87;;;3.67;;
5785;SDS011;2919;48.630;9.000;2022-12-07T00:13:01;8.00;;;3.97;;
5785;SDS011;2919;48.630;9.000;2022-12-07T00:15:26;11.27;;;4.80;;
5785;SDS011;2919;48.630;9.000;2022-12-07T00:17:52;11.27;;;4.50;;
5785;SDS011;2919;48.630;9.000;2022-12-07T00:20:17;6.20;;;3.27;;
5785;SDS011;2919;48.630;9.000;2022-12-07T00:22:43;15.07;;;4.13;;
5785;SDS011;2919;48.630;9.000;2022-12-07T00:25:08;5.77;;;3.80;;
5785;SDS011;2919;48.630;9.000;2022-12-07T00:27:34;7.47;;;3.70;;
5785;SDS011;2919;48.630;9.000;2022-12-07T00:30:00;7.67;;;3.70;;
5785;SDS011;2919;48.630;9.000;2022-12-07T00:32:26;4.90;;;3.10;;
5785;SDS011;2919;48.630;9.000;2022-12-07T00:34:51;7.43;;;4.13;;
5785;SDS011;2919;48.630;9.000;2022-12-07T00:37:17;8.17;;;4.33;;
5785;SDS011;2919;48.630;9.000;2022-12-07T00:39:42;9.77;;;3.93;;
5785;SDS011;2919;48.630;9.000;2022-12-07T00:42:08;7.73;;;3.60;;
5785;SDS011;2919;48.630;9.000;2022-12-07T00:44:33;7.43;;;3.00;;
5785;SDS011;2919;48.630;9.000;2022-12-07T00:46:59;5.73;;;3.03;;
5785;SDS011;2919;48.630;9.000;2022-12-07T00:49:25;10.60;;;4.17;;
5785;SDS011;2919;48.630;9.000;2022-12-07T00:51:50;8.63;;;3.90;;
5785;SDS011;2919;48.630;9.000;2022-12-07T00:54:16;8.20;;;4.77;;
5785;SDS011;2919;48.630;9.000;2022-12-07T00:56:41;17.30;;;4.10;;
5785;SDS011;2919;48.630;9.000;2022-12-07T00:59:10;7.33;;;4.27;;
5785;SDS011;2919;48.630;9.000;2022-12-07T01:01:39;9.37;;;4.83;;
5785;SDS011;2919;48.630;9.000;2022-12-07T01:04:05;6.50;;;3.90;;
5785;SDS011;2919;48.630;9.000;2022-12-07T01:06:30;5.90;;;3.10;;
5785;SDS011;2919;48.630;9.000;2022-12-07T01:08:57;5.43;;;3.60;;
5785;SDS011;2919;48.630;9.000;2022-12-07T01:11:24;8.30;;;4.57;;
5785;SDS011;2919;48.630;9.000;2022-12-07T01:13:51;9.73;;;4.10;;
5785;SDS011;2919;48.630;9.000;2022-12-07T01:16:19;6.10;;;3.90;;
5785;SDS011;2919;48.630;9.000;2022-12-07T01:18:46;5.23;;;2.83;;
5785;SDS011;2919;48.630;9.000;2022-12-07T01:21:15;7.63;;;4.27;;
5785;SDS011;2919;48.630;9.000;2022-12-07T01:23:44;9.43;;;4.13;;
5785;SDS011;2919;48.630;9.000;2022-12-07T01:26:10;11.70;;;5.73;;
5785;SDS011;2919;48.630;9.000;2022-12-07T01:28:38;7.73;;;4.27;;
5785;SDS011;2919;48.630;9.000;2022-12-07T01:31:11;14.07;;;5.07;;
5785;SDS011;2919;48.630;9.000;2022-12-07T01:33:42;11.47;;;4.70;;
5785;SDS011;2919;48.630;9.000;2022-12-07T01:38:54;6.40;;;3.40;;
5785;SDS011;2919;48.630;9.000;2022-12-07T01:41:22;10.77;;;4.20;;
5785;SDS011;2919;48.630;9.000;2022-12-07T01:46:42;5.83;;;4.10;;
5785;SDS011;2919;48.630;9.000;2022-12-07T01:51:50;13.20;;;8.37;;
5785;SDS011;2919;48.630;9.000;2022-12-07T01:54:22;12.37;;;6.87;;
5785;SDS011;2919;48.630;9.000;2022-12-07T01:56:50;10.90;;;6.97;;
5785;SDS011;2919;48.630;9.000;2022-12-07T01:59:18;21.33;;;10.07;;
5785;SDS011;2919;48.630;9.000;2022-12-07T02:01:47;20.33;;;9.93;;
5785;SDS011;2919;48.630;9.000;2022-12-07T02:04:13;18.43;;;9.00;;
5785;SDS011;2919;48.630;9.000;2022-12-07T02:06:40;23.73;;;10.93;;
5785;SDS011;2919;48.630;9.000;2022-12-07T02:09:07;10.57;;;7.03;;
5785;SDS011;2919;48.630;9.000;2022-12-07T02:11:33;15.50;;;7.50;;
5785;SDS011;2919;48.630;9.000;2022-12-07T02:13:59;13.17;;;7.47;;
5785;SDS011;2919;48.630;9.000;2022-12-07T02:22:24;10.93;;;5.13;;
5785;SDS011;2919;48.630;9.000;2022-12-07T02:25:04;12.83;;;6.47;;
5785;SDS011;2919;48.630;9.000;2022-12-07T02:33:07;12.90;;;6.53;;
5785;SDS011;2919;48.630;9.000;2022-12-07T02:35:46;10.20;;;6.03;;
5785;SDS011;2919;48.630;9.000;2022-12-07T02:40:57;11.43;;;5.60;;
5785;SDS011;2919;48.630;9.000;2022-12-07T02:44:00;9.20;;;5.87;;
5785;SDS011;2919;48.630;9.000;2022-12-07T02:46:30;11.63;;;6.20;;
5785;SDS011;2919;48.630;9.000;2022-12-07T02:49:05;12.60;;;5.90;;
5785;SDS011;2919;48.630;9.000;2022-12-07T02:51:33;12.20;;;5.90;;
5785;SDS011;2919;48.630;9.000;2022-12-07T02:54:07;13.23;;;4.97;;
5785;SDS011;2919;48.630;9.000;2022-12-07T02:59:21;13.00;;;5.90;;
5785;SDS011;2919;48.630;9.000;2022-12-07T03:15:49;7.73;;;4.30;;
5785;SDS011;2919;48.630;9.000;2022-12-07T03:18:21;11.20;;;6.13;;
5785;SDS011;2919;48.630;9.000;2022-12-07T03:20:49;12.30;;;5.13;;
5785;SDS011;2919;48.630;9.000;2022-12-07T03:23:17;9.33;;;3.90;;
5785;SDS011;2919;48.630;9.000;2022-12-07T03:25:46;11.37;;;5.00;;
5785;SDS011;2919;48.630;9.000;2022-12-07T03:28:15;12.07;;;6.00;;
5785;SDS011;2919;48.630;9.000;2022-12-07T03:30:47;12.00;;;5.10;;
5785;SDS011;2919;48.630;9.000;2022-12-07T03:33:24;11.80;;;5.67;;
5785;SDS011;2919;48.630;9.000;2022-12-07T03:36:17;10.87;;;4.70;;
5785;SDS011;2919;48.630;9.000;2022-12-07T03:41:29;8.47;;;4.93;;
5785;SDS011;2919;48.630;9.000;2022-12-07T03:43:57;9.73;;;5.20;;
5785;SDS011;2919;48.630;9.000;2022-12-07T03:54:28;11.90;;;5.20;;
5785;SDS011;2919;48.630;9.000;2022-12-07T03:56:59;9.70;;;5.30;;
5785;SDS011;2919;48.630;9.000;2022-12-07T03:59:26;7.97;;;4.90;;
5785;SDS011;2919;48.630;9.000;2022-12-07T04:01:54;10.37;;;6.00;;
5785;SDS011;2919;48.630;9.000;2022-12-07T04:04:22;11.90;;;4.80;;
5785;SDS011;2919;48.630;9.000;2022-12-07T04:06:49;6.30;;;3.90;;
5785;SDS011;2919;48.630;9.000;2022-12-07T04:09:15;9.43;;;4.77;;
5785;SDS011;2919;48.630;9.000;2022-12-07T04:11:41;13.37;;;5.40;;
5785;SDS011;2919;48.630;9.000;2022-12-07T04:14:07;7.63;;;4.20;;
5785;SDS011;2919;48.630;9.000;2022-12-07T04:16:51;11.53;;;6.07;;
5785;SDS011;2919;48.630;9.000;2022-12-07T04:19:19;10.63;;;4.73;;
5785;SDS011;2919;48.630;9.000;2022-12-07T04:21:46;14.63;;;5.00;;
5785;SDS011;2919;48.630;9.000;2022-12-07T04:24:12;10.13;;;5.90;;
5785;SDS011;2919;48.630;9.000;2022-12-07T04:26:39;8.53;;;5.60;;
5785;SDS011;2919;48.630;9.000;2022-12-07T04:29:06;9.03;;;5.17;;
5785;SDS011;2919;48.630;9.000;2022-12-07T04:31:32;6.50;;;4.03;;
5785;SDS011;2919;48.630;9.000;2022-12-07T04:33:57;11.13;;;5.50;;
5785;SDS011;2919;48.630;9.000;2022-12-07T04:36:23;9.60;;;5.07;;
5785;SDS011;2919;48.630;9.000;2022-12-07T04:38:49;11.83;;;5.67;;
5785;SDS011;2919;48.630;9.000;2022-12-07T04:41:14;13.30;;;5.80;;
5785;SDS011;2919;48.630;9.000;2022-12-07T04:43:40;7.93;;;4.30;;
5785;SDS011;2919;48.630;9.000;2022-12-07T04:46:05;7.53;;;4.67;;
5785;SDS011;2919;48.630;9.000;2022-12-07T04:48:31;9.00;;;4.90;;
5785;SDS011;2919;48.630;9.000;2022-12-07T04:50:57;9.03;;;4.10;;
5785;SDS011;2919;48.630;9.000;2022-12-07T04:53:23;5.30;;;3.80;;
5785;SDS011;2919;48.630;9.000;2022-12-07T04:55:48;10.23;;;5.67;;
5785;SDS011;2919;48.630;9.000;2022-12-07T04:58:14;7.03;;;3.47;;
5785;SDS011;2919;48.630;9.000;2022-12-07T05:00:40;9.87;;;5.00;;
5785;SDS011;2919;48.630;9.000;2022-12-07T05:03:06;11.40;;;5.40;;
5785;SDS011;2919;48.630;9.000;2022-12-07T05:05:32;10.47;;;5.70;;
5785;SDS011;2919;48.630;9.000;2022-12-07T05:07:57;8.37;;;4.07;;
5785;SDS011;2919;48.630;9.000;2022-12-07T05:10:23;9.20;;;5.00;;
5785;SDS011;2919;48.630;9.000;2022-12-07T05:12:49;8.73;;;4.50;;
5785;SDS011;2919;48.630;9.000;2022-12-07T05:15:14;11.67;;;3.77;;
5785;SDS011;2919;48.630;9.000;2022-12-07T05:17:40;8.30;;;5.00;;
5785;SDS011;2919;48.630;9.000;2022-12-07T05:20:07;9.00;;;4.43;;
5785;SDS011;2919;48.630;9.000;2022-12-07T05:22:33;7.53;;;4.00;;
5785;SDS011;2919;48.630;9.000;2022-12-07T05:24:58;10.50;;;4.80;;
5785;SDS011;2919;48.630;9.000;2022-12-07T05:27:24;10.10;;;5.60;;
5785;SDS011;2919;48.630;9.000;2022-12-07T05:29:50;13.13;;;5.13;;
5785;SDS011;2919;48.630;9.000;2022-12-07T05:32:16;8.20;;;4.10;;
5785;SDS011;2919;48.630;9.000;2022-12-07T05:34:42;9.60;;;5.03;;
5785;SDS011;2919;48.630;9.000;2022-12-07T05:37:08;12.70;;;4.97;;
5785;SDS011;2919;48.630;9.000;2022-12-07T05:39:33;17.57;;;5.53;;
5785;SDS011;2919;48.630;9.000;2022-12-07T05:42:00;10.87;;;4.83;;
5785;SDS011;2919;48.630;9.000;2022-12-07T05:44:38;12.30;;;5.47;;
5785;SDS011;2919;48.630;9.000;2022-12-07T05:47:09;8.43;;;4.60;;
5785;SDS011;2919;48.630;9.000;2022-12-07T05:49:35;7.17;;;4.10;;
5785;SDS011;2919;48.630;9.000;2022-12-07T05:52:01;12.40;;;4.47;;
5785;SDS011;2919;48.630;9.000;2022-12-07T05:54:27;11.97;;;3.57;;
5785;SDS011;2919;48.630;9.000;2022-12-07T05:56:53;6.87;;;4.10;;
5785;SDS011;2919;48.630;9.000;2022-12-07T05:59:18;9.43;;;4.00;;
5785;SDS011;2919;48.630;9.000;2022-12-07T06:01:59;10.33;;;4.30;;
5785;SDS011;2919;48.630;9.000;2022-12-07T06:04:27;7.93;;;4.40;;
5785;SDS011;2919;48.630;9.000;2022-12-07T06:06:53;8.23;;;4.50;;
5785;SDS011;2919;48.630;9.000;2022-12-07T06:09:20;16.57;;;5.70;;
5785;SDS011;2919;48.630;9.000;2022-12-07T06:11:47;9.63;;;5.27;;
5785;SDS011;2919;48.630;9.000;2022-12-07T06:14:31;10.30;;;5.00;;
5785;SDS011;2919;48.630;9.000;2022-12-07T06:16:57;8.47;;;3.93;;
5785;SDS011;2919;48.630;9.000;2022-12-07T06:19:24;6.03;;;4.03;;
5785;SDS011;2919;48.630;9.000;2022-12-07T06:21:49;6.97;;;4.10;;
5785;SDS011;2919;48.630;9.000;2022-12-07T06:24:16;11.07;;;3.90;;
5785;SDS011;2919;48.630;9.000;2022-12-07T06:26:42;13.37;;;6.77;;
5785;SDS011;2919;48.630;9.000;2022-12-07T06:29:08;9.00;;;4.90;;
5785;SDS011;2919;48.630;9.000;2022-12-07T06:31:35;8.67;;;4.20;;
5785;SDS011;2919;48.630;9.000;2022-12-07T06:34:02;9.43;;;5.83;;
5785;SDS011;2919;48.630;9.000;2022-12-07T06:36:29;14.30;;;5.73;;
5785;SDS011;2919;48.630;9.000;2022-12-07T06:38:55;9.53;;;5.23;;
5785;SDS011;2919;48.630;9.000;2022-12-07T06:41:21;15.20;;;6.40;;
5785;SDS011;2919;48.630;9.000;2022-12-07T06:43:47;10.47;;;6.00;;
5785;SDS011;2919;48.630;9.000;2022-12-07T06:46:13;22.43;;;8.00;;
5785;SDS011;2919;48.630;9.000;2022-12-07T06:48:39;16.70;;;7.37;;
5785;SDS011;2919;48.630;9.000;2022-12-07T06:51:05;8.97;;;5.13;;
5785;SDS011;2919;48.630;9.000;2022-12-07T06:53:31;11.17;;;5.40;;
5785;SDS011;2919;48.630;9.000;2022-12-07T06:55:57;13.40;;;5.93;;
5785;SDS011;2919;48.630;9.000;2022-12-07T06:58:23;11.83;;;5.33;;
5785;SDS011;2919;48.630;9.000;2022-12-07T07:00:48;13.50;;;6.70;;
5785;SDS011;2919;48.630;9.000;2022-12-07T07:03:17;10.80;;;6.13;;
5785;SDS011;2919;48.630;9.000;2022-12-07T07:05:43;15.70;;;6.80;;
5785;SDS011;2919;48.630;9.000;2022-12-07T07:08:10;11.33;;;5.53;;
5785;SDS011;2919;48.630;9.000;2022-12-07T07:10:36;11.70;;;5.67;;
5785;SDS011;2919;48.630;9.000;2022-12-07T07:13:02;13.53;;;8.07;;
5785;SDS011;2919;48.630;9.000;2022-12-07T07:15:28;9.47;;;6.03;;
5785;SDS011;2919;48.630;9.000;2022-12-07T07:17:54;13.00;;;6.67;;
5785;SDS011;2919;48.630;9.000;2022-12-07T07:20:20;12.03;;;7.13;;
5785;SDS011;2919;48.630;9.000;2022-12-07T07:22:45;13.73;;;7.37;;
5785;SDS011;2919;48.630;9.000;2022-12-07T07:25:11;12.23;;;5.67;;
5785;SDS011;2919;48.630;9.000;2022-12-07T07:27:37;10.13;;;5.90;;
5785;SDS011;2919;48.630;9.000;2022-12-07T07:30:03;28.33;;;10.17;;
5785;SDS011;2919;48.630;9.000;2022-12-07T07:32:29;22.30;;;8.47;;
5785;SDS011;2919;48.630;9.000;2022-12-07T07:34:55;14.70;;;6.23;;
5785;SDS011;2919;48.630;9.000;2022-12-07T07:37:20;13.20;;;6.33;;
5785;SDS011;2919;48.630;9.000;2022-12-07T07:39:46;10.83;;;6.07;;
5785;SDS011;2919;48.630;9.000;2022-12-07T07:42:11;11.03;;;5.33;;
5785;SDS011;2919;48.630;9.000;2022-12-07T07:44:37;11.00;;;4.70;;
5785;SDS011;2919;48.630;9.000;2022-12-07T07:47:02;7.20;;;4.33;;
5785;SDS011;2919;48.630;9.000;2022-12-07T07:49:28;7.57;;;3.97;;
5785;SDS011;2919;48.630;9.000;2022-12-07T07:51:54;7.13;;;3.60;;
5785;SDS011;2919;48.630;9.000;2022-12-07T07:54:19;7.33;;;3.10;;
5785;SDS011;2919;48.630;9.000;2022-12-07T07:56:45;9.30;;;3.17;;
5785;SDS011;2919;48.630;9.000;2022-12-07T07:59:11;12.20;;;3.97;;
5785;SDS011;2919;48.630;9.000;2022-12-07T08:01:36;6.10;;;3.63;;
5785;SDS011;2919;48.630;9.000;2022-12-07T08:04:02;6.03;;;3.27;;
5785;SDS011;2919;48.630;9.000;2022-12-07T08:06:27;6.70;;;3.60;;
5785;SDS011;2919;48.630;9.000;2022-12-07T08:08:53;6.80;;;3.17;;
5785;SDS011;2919;48.630;9.000;2022-12-07T08:11:19;6.40;;;3.83;;
5785;SDS011;2919;48.630;9.000;2022-12-07T08:13:45;6.93;;;3.30;;
5785;SDS011;2919;48.630;9.000;2022-12-07T08:16:12;6.30;;;3.20;;
5785;SDS011;2919;48.630;9.000;2022-12-07T08:18:39;7.27;;;3.90;;
5785;SDS011;2919;48.630;9.000;2022-12-07T08:21:06;11.37;;;3.77;;
5785;SDS011;2919;48.630;9.000;2022-12-07T08:23:34;11.30;;;3.80;;
5785;SDS011;2919;48.630;9.000;2022-12-07T08:26:03;7.37;;;4.03;;
5785;SDS011;2919;48.630;9.000;2022-12-07T08:28:30;6.60;;;3.67;;
5785;SDS011;2919;48.630;9.000;2022-12-07T08:31:02;11.50;;;4.20;;
5785;SDS011;2919;48.630;9.000;2022-12-07T08:33:29;9.37;;;4.37;;
5785;SDS011;2919;48.630;9.000;2022-12-07T08:35:55;5.33;;;3.10;;
5785;SDS011;2919;48.630;9.000;2022-12-07T08:38:24;7.20;;;3.70;;
5785;SDS011;2919;48.630;9.000;2022-12-07T08:40:57;7.83;;;3.43;;
5785;SDS011;2919;48.630;9.000;2022-12-07T08:43:23;7.57;;;3.83;;
5785;SDS011;2919;48.630;9.000;2022-12-07T08:45:52;8.60;;;3.63;;
5785;SDS011;2919;48.630;9.000;2022-12-07T08:48:31;7.90;;;3.10;;
5785;SDS011;2919;48.630;9.000;2022-12-07T08:50:58;5.93;;;3.30;;
5785;SDS011;2919;48.630;9.000;2022-12-07T08:53:26;8.03;;;2.43;;
5785;SDS011;2919;48.630;9.000;2022-12-07T08:55:53;6.23;;;3.40;;
5785;SDS011;2919;48.630;9.000;2022-12-07T08:58:18;7.13;;;3.73;;
5785;SDS011;2919;48.630;9.000;2022-12-07T09:00:44;6.73;;;3.37;;
5785;SDS011;2919;48.630;9.000;2022-12-07T09:03:10;7.47;;;3.70;;
5785;SDS011;2919;48.630;9.000;2022-12-07T09:05:35;6.97;;;3.63;;
5785;SDS011;2919;48.630;9.000;2022-12-07T09:08:01;10.60;;;3.63;;
5785;SDS011;2919;48.630;9.000;2022-12-07T09:10:28;4.23;;;2.33;;
5785;SDS011;2919;48.630;9.000;2022-12-07T09:12:54;5.10;;;2.40;;
5785;SDS011;2919;48.630;9.000;2022-12-07T09:15:19;8.70;;;2.80;;
5785;SDS011;2919;48.630;9.000;2022-12-07T09:17:45;5.43;;;2.53;;
5785;SDS011;2919;48.630;9.000;2022-12-07T09:20:11;6.93;;;2.53;;
5785;SDS011;2919;48.630;9.000;2022-12-07T09:22:37;3.27;;;2.30;;
5785;SDS011;2919;48.630;9.000;2022-12-07T09:25:03;4.50;;;2.67;;
5785;SDS011;2919;48.630;9.000;2022-12-07T09:27:30;9.40;;;2.70;;
5785;SDS011;2919;48.630;9.000;2022-12-07T09:29:55;3.90;;;2.33;;
5785;SDS011;2919;48.630;9.000;2022-12-07T09:32:21;4.40;;;2.70;;
5785;SDS011;2919;48.630;9.000;2022-12-07T09:34:48;7.70;;;3.00;;
5785;SDS011;2919;48.630;9.000;2022-12-07T09:37:13;9.23;;;3.87;;
5785;SDS011;2919;48.630;9.000;2022-12-07T09:39:40;4.70;;;2.30;;
5785;SDS011;2919;48.630;9.000;2022-12-07T09:42:06;3.87;;;2.20;;
5785;SDS011;2919;48.630;9.000;2022-12-07T09:44:33;6.23;;;3.00;;
5785;SDS011;2919;48.630;9.000;2022-12-07T09:47:00;5.10;;;2.80;;
5785;SDS011;2919;48.630;9.000;2022-12-07T09:49:31;8.23;;;3.27;;
5785;SDS011;2919;48.630;9.000;2022-12-07T09:54:45;8.77;;;2.90;;
5785;SDS011;2919;48.630;9.000;2022-12-07T09:57:13;3.77;;;2.00;;
5785;SDS011;2919;48.630;9.000;2022-12-07T09:59:39;4.97;;;2.40;;
5785;SDS011;2919;48.630;9.000;2022-12-07T10:02:23;4.33;;;2.13;;
5785;SDS011;2919;48.630;9.000;2022-12-07T10:05:09;5.83;;;2.70;;
5785;SDS011;2919;48.630;9.000;2022-12-07T10:07:40;8.30;;;3.90;;
5785;SDS011;2919;48.630;9.000;2022-12-07T10:10:09;5.33;;;2.70;;
5785;SDS011;2919;48.630;9.000;2022-12-07T10:13:13;5.23;;;2.20;;
5785;SDS011;2919;48.630;9.000;2022-12-07T10:18:27;4.33;;;2.43;;
5785;SDS011;2919;48.630;9.000;2022-12-07T10:21:02;4.30;;;2.30;;
5785;SDS011;2919;48.630;9.000;2022-12-07T10:23:37;3.47;;;2.10;;
5785;SDS011;2919;48.630;9.000;2022-12-07T10:28:54;5.57;;;3.03;;
5785;SDS011;2919;48.630;9.000;2022-12-07T10:31:21;6.97;;;2.37;;
5785;SDS011;2919;48.630;9.000;2022-12-07T10:33:55;4.73;;;2.80;;
5785;SDS011;2919;48.630;9.000;2022-12-07T10:36:34;5.50;;;2.57;;
5785;SDS011;2919;48.630;9.000;2022-12-07T10:41:29;6.20;;;3.27;;
5785;SDS011;2919;48.630;9.000;2022-12-07T10:43:55;6.60;;;2.37;;
5785;SDS011;2919;48.630;9.000;2022-12-07T10:51:46;5.50;;;2.53;;
5785;SDS011;2919;48.630;9.000;2022-12-07T10:54:31;4.93;;;2.20;;
5785;SDS011;2919;48.630;9.000;2022-12-07T11:00:15;5.40;;;2.67;;
5785;SDS011;2919;48.630;9.000;2022-12-07T11:03:04;5.53;;;2.30;;
5785;SDS011;2919;48.630;9.000;2022-12-07T11:05:40;5.20;;;3.13;;
5785;SDS011;2919;48.630;9.000;2022-12-07T11:08:15;4.13;;;2.63;;
5785;SDS011;2919;48.630;9.000;2022-12-07T11:16:46;9.13;;;3.73;;
5785;SDS011;2919;48.630;9.000;2022-12-07T11:22:15;4.43;;;2.50;;
5785;SDS011;2919;48.630;9.000;2022-12-07T11:27:51;8.20;;;2.20;;
5785;SDS011;2919;48.630;9.000;2022-12-07T11:30:31;9.00;;;2.80;;
5785;SDS011;2919;48.630;9.000;2022-12-07T11:36:04;4.07;;;2.67;;
5785;SDS011;2919;48.630;9.000;2022-12-07T11:38:47;7.00;;;2.40;;
5785;SDS011;2919;48.630;9.000;2022-12-07T11:41:21;2.93;;;1.90;;
5785;SDS011;2919;48.630;9.000;2022-12-07T11:43:55;4.50;;;2.47;;
5785;SDS011;2919;48.630;9.000;2022-12-07T11:46:29;5.40;;;2.93;;
5785;SDS011;2919;48.630;9.000;2022-12-07T11:49:12;5.10;;;2.40;;
5785;SDS011;2919;48.630;9.000;2022-12-07T11:52:01;30.00;;;15.13;;
5785;SDS011;2919;48.630;9.000;2022-12-07T11:54:30;7.90;;;2.83;;
5785;SDS011;2919;48.630;9.000;2022-12-07T11:57:02;7.50;;;4.33;;
5785;SDS011;2919;48.630;9.000;2022-12-07T11:59:38;7.70;;;3.73;;
5785;SDS011;2919;48.630;9.000;2022-12-07T12:02:13;3.87;;;2.00;;
5785;SDS011;2919;48.630;9.000;2022-12-07T12:04:58;4.80;;;1.77;;
5785;SDS011;2919;48.630;9.000;2022-12-07T12:07:38;8.53;;;2.60;;
5785;SDS011;2919;48.630;9.000;2022-12-07T12:10:14;5.47;;;2.30;;
5785;SDS011;2919;48.630;9.000;2022-12-07T12:21:16;5.70;;;2.53;;
5785;SDS011;2919;48.630;9.000;2022-12-07T12:26:18;5.20;;;2.00;;
5785;SDS011;2919;48.630;9.000;2022-12-07T12:33:46;5.60;;;2.20;;
5785;SDS011;2919;48.630;9.000;2022-12-07T12:51:45;4.03;;;1.83;;
5785;SDS011;2919;48.630;9.000;2022-12-07T12:54:32;5.13;;;2.53;;
5785;SDS011;2919;48.630;9.000;2022-12-07T13:02:16;4.03;;;2.80;;
5785;SDS011;2919;48.630;9.000;2022-12-07T13:10:54;4.73;;;2.33;;
5785;SDS011;2919;48.630;9.000;2022-12-07T13:28:41;2.30;;;1.10;;
5785;SDS011;2919;48.630;9.000;2022-12-07T13:32:16;2.10;;;1.00;;
5785;SDS011;2919;48.630;9.000;2022-12-07T13:39:56;7.03;;;1.77;;
5785;SDS011;2919;48.630;9.000;2022-12-07T13:42:27;7.83;;;3.10;;
5785;SDS011;2919;48.630;9.000;2022-12-07T13:44:55;4.83;;;1.50;;
5785;SDS011;2919;48.630;9.000;2022-12-07T13:47:32;2.33;;;1.50;;
5785;SDS011;2919;48.630;9.000;2022-12-07T13:50:26;4.33;;;1.77;;
5785;SDS011;2919;48.630;9.000;2022-12-07T13:52:57;3.50;;;1.73;;
5785;SDS011;2919;48.630;9.000;2022-12-07T13:55:24;2.07;;;1.37;;
5785;SDS011;2919;48.630;9.000;2022-12-07T13:57:53;3.53;;;1.47;;
5785;SDS011;2919;48.630;9.000;2022-12-07T14:00:21;3.70;;;1.73;;
5785;SDS011;2919;48.630;9.000;2022-12-07T14:02:58;5.10;;;1.80;;
5785;SDS011;2919;48.630;9.000;2022-12-07T14:05:30;4.03;;;1.87;;
5785;SDS011;2919;48.630;9.000;2022-12-07T14:07:58;4.53;;;1.60;;
5785;SDS011;2919;48.630;9.000;2022-12-07T14:10:32;2.70;;;1.90;;
5785;SDS011;2919;48.630;9.000;2022-12-07T14:13:01;3.10;;;2.03;;
5785;SDS011;2919;48.630;9.000;2022-12-07T14:15:29;6.17;;;3.00;;
5785;SDS011;2919;48.630;9.000;2022-12-07T14:18:02;3.27;;;1.90;;
5785;SDS011;2919;48.630;9.000;2022-12-07T14:20:35;3.47;;;1.77;;
5785;SDS011;2919;48.630;9.000;2022-12-07T14:23:03;5.60;;;1.67;;
5785;SDS011;2919;48.630;9.000;2022-12-07T14:25:46;4.10;;;2.40;;
5785;SDS011;2919;48.630;9.000;2022-12-07T14:30:51;13.23;;;1.83;;
5785;SDS011;2919;48.630;9.000;2022-12-07T14:33:22;5.93;;;2.50;;
5785;SDS011;2919;48.630;9.000;2022-12-07T14:35:49;3.20;;;1.83;;
5785;SDS011;2919;48.630;9.000;2022-12-07T14:38:19;3.60;;;2.20;;
5785;SDS011;2919;48.630;9.000;2022-12-07T14:40:46;2.53;;;1.73;;
5785;SDS011;2919;48.630;9.000;2022-12-07T14:43:13;8.70;;;4.00;;
5785;SDS011;2919;48.630;9.000;2022-12-07T14:45:40;5.80;;;2.60;;
5785;SDS011;2919;48.630;9.000;2022-12-07T14:48:10;2.83;;;2.03;;
5785;SDS011;2919;48.630;9.000;2022-12-07T14:50:38;6.40;;;2.97;;
5785;SDS011;2919;48.630;9.000;2022-12-07T14:53:14;3.30;;;1.77;;
5785;SDS011;2919;48.630;9.000;2022-12-07T14:55:42;4.07;;;1.80;;
5785;SDS011;2919;48.630;9.000;2022-12-07T14:58:12;4.00;;;2.10;;
5785;SDS011;2919;48.630;9.000;2022-12-07T15:00:40;5.57;;;2.60;;
5785;SDS011;2919;48.630;9.000;2022-12-07T15:03:06;4.10;;;2.70;;
5785;SDS011;2919;48.630;9.000;2022-12-07T15:05:32;4.67;;;2.93;;
5785;SDS011;2919;48.630;9.000;2022-12-07T15:07:58;3.53;;;1.80;;
5785;SDS011;2919;48.630;9.000;2022-12-07T15:10:25;5.57;;;3.20;;
5785;SDS011;2919;48.630;9.000;2022-12-07T15:12:54;4.37;;;2.13;;
5785;SDS011;2919;48.630;9.000;2022-12-07T15:15:40;6.97;;;3.10;;
5785;SDS011;2919;48.630;9.000;2022-12-07T15:18:06;4.43;;;2.90;;
5785;SDS011;2919;48.630;9.000;2022-12-07T15:20:32;6.53;;;2.63;;
5785;SDS011;2919;48.630;9.000;2022-12-07T15:22:58;4.43;;;2.00;;
5785;SDS011;2919;48.630;9.000;2022-12-07T15:25:23;6.80;;;2.80;;
5785;SDS011;2919;48.630;9.000;2022-12-07T15:27:49;6.70;;;3.60;;
5785;SDS011;2919;48.630;9.000;2022-12-07T15:30:14;6.10;;;2.73;;
5785;SDS011;2919;48.630;9.000;2022-12-07T15:32:40;4.97;;;2.50;;
5785;SDS011;2919;48.630;9.000;2022-12-07T15:35:06;6.67;;;4.10;;
5785;SDS011;2919;48.630;9.000;2022-12-07T15:37:32;4.30;;;2.60;;
5785;SDS011;2919;48.630;9.000;2022-12-07T15:39:58;10.50;;;3.83;;
5785;SDS011;2919;48.630;9.000;2022-12-07T15:42:23;5.63;;;3.00;;
5785;SDS011;2919;48.630;9.000;2022-12-07T15:44:49;8.00;;;3.93;;
5785;SDS011;2919;48.630;9.000;2022-12-07T15:47:30;12.43;;;3.57;;
5785;SDS011;2919;48.630;9.000;2022-12-07T15:50:01;10.73;;;3.17;;
5785;SDS011;2919;48.630;9.000;2022-12-07T15:52:29;7.90;;;3.13;;
5785;SDS011;2919;48.630;9.000;2022-12-07T15:54:55;6.17;;;3.17;;
5785;SDS011;2919;48.630;9.000;2022-12-07T15:57:20;7.77;;;2.60;;
5785;SDS011;2919;48.630;9.000;2022-12-07T15:59:46;6.20;;;3.30;;
5785;SDS011;2919;48.630;9.000;2022-12-07T16:02:12;5.37;;;3.40;;
5785;SDS011;2919;48.630;9.000;2022-12-07T16:04:38;8.93;;;3.97;;
5785;SDS011;2919;48.630;9.000;2022-12-07T16:07:03;6.23;;;3.60;;
5785;SDS011;2919;48.630;9.000;2022-12-07T16:09:29;5.63;;;3.17;;
5785;SDS011;2919;48.630;9.000;2022-12-07T16:11:55;7.83;;;2.93;;
5785;SDS011;2919;48.630;9.000;2022-12-07T16:14:20;9.50;;;3.80;;
5785;SDS011;2919;48.630;9.000;2022-12-07T16:16:46;6.87;;;3.80;;
5785;SDS011;2919;48.630;9.000;2022-12-07T16:19:12;10.10;;;3.60;;
5785;SDS011;2919;48.630;9.000;2022-12-07T16:21:38;12.57;;;4.40;;
5785;SDS011;2919;48.630;9.000;2022-12-07T16:24:04;9.77;;;3.93;;
5785;SDS011;2919;48.630;9.000;2022-12-07T16:26:31;10.70;;;3.97;;
5785;SDS011;2919;48.630;9.000;2022-12-07T16:28:57;5.80;;;3.37;;
5785;SDS011;2919;48.630;9.000;2022-12-07T16:31:23;8.03;;;3.90;;
5785;SDS011;2919;48.630;9.000;2022-12-07T16:33:52;6.53;;;2.93;;
5785;SDS011;2919;48.630;9.000;2022-12-07T16:36:20;7.37;;;4.53;;
5785;SDS011;2919;48.630;9.000;2022-12-07T16:38:47;8.07;;;5.03;;
5785;SDS011;2919;48.630;9.000;2022-12-07T16:41:13;7.10;;;4.23;;
5785;SDS011;2919;48.630;9.000;2022-12-07T16:43:39;6.00;;;3.80;;
5785;SDS011;2919;48.630;9.000;2022-12-07T16:46:05;9.40;;;4.80;;
5785;SDS011;2919;48.630;9.000;2022-12-07T16:48:31;7.80;;;4.30;;
5785;SDS011;2919;48.630;9.000;2022-12-07T16:51:02;12.70;;;5.50;;
5785;SDS011;2919;48.630;9.000;2022-12-07T16:53:29;11.77;;;4.97;;
5785;SDS011;2919;48.630;9.000;2022-12-07T16:55:54;10.10;;;5.50;;
5785;SDS011;2919;48.630;9.000;2022-12-07T16:58:20;8.90;;;4.83;;
5785;SDS011;2919;48.630;9.000;2022-12-07T17:00:46;9.10;;;4.60;;
5785;SDS011;2919;48.630;9.000;2022-12-07T17:03:12;7.70;;;4.00;;
5785;SDS011;2919;48.630;9.000;2022-12-07T17:05:38;11.33;;;5.63;;
5785;SDS011;2919;48.630;9.000;2022-12-07T17:08:05;12.97;;;6.13;;
5785;SDS011;2919;48.630;9.000;2022-12-07T17:10:32;13.20;;;5.83;;
5785;SDS011;2919;48.630;9.000;2022-12-07T17:13:00;22.43;;;11.57;;
5785;SDS011;2919;48.630;9.000;2022-12-07T17:15:26;13.83;;;5.93;;
5785;SDS011;2919;48.630;9.000;2022-12-07T17:20:20;13.50;;;6.60;;
5785;SDS011;2919;48.630;9.000;2022-12-07T17:22:48;11.77;;;7.20;;
5785;SDS011;2919;48.630;9.000;2022-12-07T17:25:14;12.10;;;5.80;;
5785;SDS011;2919;48.630;9.000;2022-12-07T17:27:41;11.23;;;5.13;;
5785;SDS011;2919;48.630;9.000;2022-12-07T17:30:07;15.13;;;5.33;;
5785;SDS011;2919;48.630;9.000;2022-12-07T17:32:33;8.50;;;5.20;;
5785;SDS011;2919;48.630;9.000;2022-12-07T17:34:59;10.53;;;5.33;;
5785;SDS011;2919;48.630;9.000;2022-12-07T17:37:25;13.70;;;4.97;;
5785;SDS011;2919;48.630;9.000;2022-12-07T17:39:51;9.77;;;4.57;;
5785;SDS011;2919;48.630;9.000;2022-12-07T17:42:20;13.57;;;5.03;;
5785;SDS011;2919;48.630;9.000;2022-12-07T17:45:04;13.37;;;5.20;;
5785;SDS011;2919;48.630;9.000;2022-12-07T17:47:32;9.70;;;5.90;;
5785;SDS011;2919;48.630;9.000;2022-12-07T17:49:57;7.40;;;4.90;;
5785;SDS011;2919;48.630;9.000;2022-12-07T17:52:23;18.00;;;7.93;;